createdAt,value
2023-08-01T00:01:02.208Z,6.57
2023-08-01T00:03:29.186Z,4.77
2023-08-01T00:05:56.231Z,5.00
2023-08-01T00:08:23.019Z,3.70
2023-08-01T00:10:49.934Z,9.80
2023-08-01T00:13:16.659Z,4.73
2023-08-01T00:15:50.679Z,5.80
2023-08-01T00:18:27.964Z,5.80
2023-08-01T00:20:54.959Z,5.43
2023-08-01T00:23:21.781Z,5.43
2023-08-01T00:25:52.591Z,5.17
2023-08-01T00:28:19.657Z,5.13
2023-08-01T00:30:46.660Z,4.40
2023-08-01T00:33:14.201Z,10.57
2023-08-01T00:35:40.914Z,4.30
2023-08-01T00:38:07.953Z,6.97
2023-08-01T00:40:35.493Z,7.20
2023-08-01T00:43:02.165Z,7.77
2023-08-01T00:45:30.101Z,4.67
2023-08-01T00:47:57.734Z,5.63
2023-08-01T00:50:25.719Z,4.20
2023-08-01T00:52:53.813Z,3.50
2023-08-01T00:55:22.339Z,5.87
2023-08-01T00:57:49.493Z,2.83
2023-08-01T01:00:16.265Z,4.77
2023-08-01T01:02:42.990Z,2.93
2023-08-01T01:05:09.956Z,3.40
2023-08-01T01:07:38.159Z,2.67
2023-08-01T01:10:05.072Z,2.93
2023-08-01T01:12:31.810Z,4.97
2023-08-01T01:14:58.484Z,2.47
2023-08-01T01:17:25.190Z,4.97
2023-08-01T01:19:51.990Z,5.20
2023-08-01T01:22:20.015Z,8.03
2023-08-01T01:24:47.909Z,2.57
2023-08-01T01:27:16.650Z,4.40
2023-08-01T01:29:44.712Z,3.33
2023-08-01T01:32:12.163Z,3.57
2023-08-01T01:34:38.911Z,2.90
2023-08-01T01:37:05.786Z,3.73
2023-08-01T01:39:32.481Z,5.03
2023-08-01T01:41:59.224Z,4.50
2023-08-01T01:44:25.904Z,5.50
2023-08-01T01:46:52.681Z,4.20
2023-08-01T01:49:19.484Z,6.43
2023-08-01T01:51:46.180Z,7.23
2023-08-01T01:54:12.870Z,7.33
2023-08-01T01:56:39.937Z,7.00
2023-08-01T01:59:06.855Z,9.17
2023-08-01T02:01:33.522Z,7.43
2023-08-01T02:04:00.244Z,7.27
2023-08-01T02:06:26.919Z,10.10
2023-08-01T02:08:53.697Z,11.60
2023-08-01T02:11:20.435Z,10.80
2023-08-01T02:13:47.123Z,11.00
2023-08-01T02:16:13.862Z,10.13
2023-08-01T02:18:40.629Z,12.00
2023-08-01T02:21:07.458Z,12.87
2023-08-01T02:23:37.359Z,9.87
2023-08-01T02:26:04.510Z,12.00
2023-08-01T02:28:31.329Z,10.10
2023-08-01T02:30:58.039Z,10.83
2023-08-01T02:33:24.839Z,11.00
2023-08-01T02:35:51.604Z,9.73
2023-08-01T02:38:18.382Z,9.73
2023-08-01T02:40:45.075Z,8.90
2023-08-01T02:43:11.726Z,12.53
2023-08-01T02:45:38.451Z,7.60
2023-08-01T02:48:05.423Z,9.20
2023-08-01T02:50:32.141Z,8.90
2023-08-01T02:52:58.837Z,7.33
2023-08-01T02:55:25.521Z,6.60
2023-08-01T02:57:52.246Z,7.77
2023-08-01T03:00:19.042Z,7.07
2023-08-01T03:02:47.061Z,6.27
2023-08-01T03:05:13.938Z,7.30
2023-08-01T03:07:41.001Z,8.33
2023-08-01T03:10:08.051Z,7.90
2023-08-01T03:12:36.109Z,7.63
2023-08-01T03:15:02.787Z,7.03
2023-08-01T03:17:29.478Z,5.13
2023-08-01T03:19:56.218Z,11.23
2023-08-01T03:22:23.180Z,7.10
2023-08-01T03:24:49.922Z,6.20
2023-08-01T03:27:16.605Z,5.97
2023-08-01T03:29:43.322Z,7.93
2023-08-01T03:32:10.022Z,6.63
2023-08-01T03:34:36.939Z,6.17
2023-08-01T03:37:04.916Z,8.83
2023-08-01T03:39:31.629Z,7.07
2023-08-01T03:41:58.347Z,7.70
2023-08-01T03:44:25.149Z,9.20
2023-08-01T03:46:51.836Z,8.30
2023-08-01T03:49:19.439Z,9.63
2023-08-01T03:51:46.258Z,12.23
2023-08-01T03:54:14.316Z,10.97
2023-08-01T03:56:44.491Z,8.00
2023-08-01T03:59:17.446Z,9.73
2023-08-01T04:01:44.224Z,7.57
2023-08-01T04:04:11.193Z,6.53
2023-08-01T04:06:38.805Z,6.40
2023-08-01T04:09:07.697Z,7.03
2023-08-01T04:11:34.617Z,8.93
2023-08-01T04:14:01.376Z,10.03
2023-08-01T04:16:28.076Z,5.70
2023-08-01T04:18:54.779Z,6.47
2023-08-01T04:21:21.481Z,8.50
2023-08-01T04:23:48.283Z,8.87
2023-08-01T04:26:14.977Z,6.73
2023-08-01T04:28:41.783Z,12.37
2023-08-01T04:31:08.527Z,7.73
2023-08-01T04:33:35.294Z,11.73
2023-08-01T04:36:02.936Z,10.97
2023-08-01T04:38:29.806Z,10.60
2023-08-01T04:40:56.487Z,10.10
2023-08-01T04:43:23.290Z,15.43
2023-08-01T04:46:01.220Z,12.03
2023-08-01T04:48:56.149Z,8.50
2023-08-01T04:51:22.878Z,10.20
2023-08-01T04:53:49.685Z,13.43
2023-08-01T04:56:16.438Z,11.90
2023-08-01T04:58:43.230Z,8.90
2023-08-01T05:01:10.160Z,6.00
2023-08-01T05:03:37.266Z,9.17
2023-08-01T05:06:06.464Z,7.17
2023-08-01T05:08:34.660Z,8.73
2023-08-01T05:11:01.341Z,5.80
2023-08-01T05:13:28.089Z,3.07
2023-08-01T05:15:54.787Z,2.07
2023-08-01T05:18:21.585Z,1.83
2023-08-01T05:20:48.259Z,1.50
2023-08-01T05:23:14.931Z,3.60
2023-08-01T05:25:41.644Z,1.80
2023-08-01T05:28:08.621Z,2.10
2023-08-01T05:30:35.616Z,1.43
2023-08-01T05:33:02.420Z,2.20
2023-08-01T05:35:29.171Z,1.67
2023-08-01T05:37:55.860Z,2.83
2023-08-01T05:40:22.593Z,2.03
2023-08-01T05:42:49.588Z,1.27
2023-08-01T05:45:16.392Z,2.20
2023-08-01T05:47:43.187Z,1.30
2023-08-01T05:50:10.445Z,1.00
2023-08-01T05:52:37.256Z,3.23
2023-08-01T05:55:04.253Z,2.93
2023-08-01T05:57:31.452Z,1.20
2023-08-01T05:59:58.153Z,2.87
2023-08-01T06:02:24.908Z,2.83
2023-08-01T06:04:51.762Z,0.83
2023-08-01T06:07:24.009Z,1.10
2023-08-01T06:09:52.757Z,1.50
2023-08-01T06:12:19.963Z,1.50
2023-08-01T06:14:47.504Z,2.83
2023-08-01T06:17:14.278Z,1.00
2023-08-01T06:19:41.144Z,2.87
2023-08-01T06:22:08.064Z,1.37
2023-08-01T06:24:34.803Z,1.37
2023-08-01T06:27:01.548Z,0.97
2023-08-01T06:29:28.339Z,1.00
2023-08-01T06:31:55.124Z,3.60
2023-08-01T06:34:21.865Z,3.63
2023-08-01T06:36:49.173Z,1.30
2023-08-01T06:39:16.042Z,1.43
2023-08-01T06:41:42.813Z,1.77
2023-08-01T06:44:09.528Z,3.47
2023-08-01T06:46:36.376Z,1.13
2023-08-01T06:49:03.436Z,4.70
2023-08-01T06:51:30.184Z,1.20
2023-08-01T06:53:56.878Z,1.83
2023-08-01T06:56:23.635Z,1.37
2023-08-01T06:58:50.935Z,1.17
2023-08-01T07:01:17.802Z,2.10
2023-08-01T07:03:44.701Z,4.00
2023-08-01T07:06:11.981Z,1.67
2023-08-01T07:08:38.713Z,1.73
2023-08-01T07:11:05.570Z,1.27
2023-08-01T07:13:32.214Z,2.00
2023-08-01T07:15:59.314Z,1.27
2023-08-01T07:18:26.070Z,1.03
2023-08-01T07:21:05.833Z,1.20
2023-08-01T07:23:34.829Z,1.67
2023-08-01T07:26:01.548Z,2.73
2023-08-01T07:28:28.323Z,1.47
2023-08-01T07:31:06.383Z,2.13
2023-08-01T07:33:34.082Z,3.30
2023-08-01T07:36:01.667Z,1.87
2023-08-01T07:38:28.512Z,1.60
2023-08-01T07:40:56.284Z,1.43
2023-08-01T07:43:23.098Z,1.20
2023-08-01T07:45:51.694Z,1.30
2023-08-01T07:48:18.642Z,1.73
2023-08-01T07:50:45.341Z,1.90
2023-08-01T07:53:12.034Z,2.50
2023-08-01T07:55:38.729Z,2.03
2023-08-01T07:58:06.139Z,2.35
2023-08-01T08:00:32.886Z,2.93
2023-08-01T08:02:59.546Z,2.43
2023-08-01T08:05:26.482Z,2.72
2023-08-01T08:07:53.297Z,2.55
2023-08-01T08:10:20.282Z,4.13
2023-08-01T08:12:47.069Z,5.37
2023-08-01T08:15:14.935Z,3.40
2023-08-01T08:17:41.710Z,4.68
2023-08-01T08:20:08.951Z,4.15
2023-08-01T08:22:35.600Z,3.83
2023-08-01T08:25:02.565Z,8.45
2023-08-01T08:27:29.351Z,5.43
2023-08-01T08:29:57.040Z,5.80
2023-08-01T08:32:23.758Z,3.92
2023-08-01T08:34:50.618Z,2.50
2023-08-01T08:37:17.351Z,4.10
2023-08-01T08:39:44.769Z,5.90
2023-08-01T08:42:11.992Z,4.10
2023-08-01T08:44:44.899Z,5.75
2023-08-01T08:47:13.803Z,4.00
2023-08-01T08:49:41.647Z,4.35
2023-08-01T08:52:10.346Z,2.58
2023-08-01T08:54:40.909Z,4.15
2023-08-01T08:57:08.035Z,6.15
2023-08-01T08:59:35.820Z,3.05
2023-08-01T09:02:06.758Z,7.20
2023-08-01T09:04:33.602Z,3.00
2023-08-01T09:07:04.789Z,4.22
2023-08-01T09:09:32.550Z,2.70
2023-08-01T09:12:00.145Z,3.97
2023-08-01T09:14:26.949Z,2.05
2023-08-01T09:16:53.977Z,4.18
2023-08-01T09:19:22.926Z,3.22
2023-08-01T09:21:50.061Z,2.75
2023-08-01T09:24:19.061Z,2.88
2023-08-01T09:26:48.968Z,4.68
2023-08-01T09:29:20.786Z,4.43
2023-08-01T09:31:47.942Z,4.25
2023-08-01T09:34:26.050Z,4.32
2023-08-01T09:36:59.772Z,6.43
2023-08-01T09:39:26.622Z,5.65
2023-08-01T09:42:01.045Z,4.75
2023-08-01T09:44:29.605Z,3.80
2023-08-01T09:47:03.568Z,3.58
2023-08-01T09:49:31.174Z,6.10
2023-08-01T09:51:59.154Z,4.30
2023-08-01T09:54:26.228Z,5.47
2023-08-01T09:56:55.188Z,4.63
2023-08-01T09:59:27.237Z,7.30
2023-08-01T10:01:56.072Z,5.97
2023-08-01T10:04:31.426Z,5.88
2023-08-01T10:07:07.850Z,2.22
2023-08-01T10:09:38.990Z,10.32
2023-08-01T10:12:07.078Z,3.10
2023-08-01T10:14:34.432Z,2.80
2023-08-01T10:17:04.535Z,7.38
2023-08-01T10:19:34.200Z,4.32
2023-08-01T10:22:01.685Z,2.42
2023-08-01T10:24:29.545Z,7.32
2023-08-01T10:26:56.321Z,4.82
2023-08-01T10:29:23.194Z,6.20
2023-08-01T10:31:54.406Z,3.95
2023-08-01T10:34:24.580Z,2.72
2023-08-01T10:36:58.993Z,1.52
2023-08-01T10:39:27.631Z,3.83
2023-08-01T10:42:06.332Z,2.00
2023-08-01T10:44:35.448Z,3.10
2023-08-01T10:47:05.559Z,2.40
2023-08-01T10:49:41.024Z,3.60
2023-08-01T10:52:27.954Z,6.10
2023-08-01T10:55:00.510Z,3.58
2023-08-01T10:57:31.928Z,7.20
2023-08-01T10:59:59.986Z,2.47
2023-08-01T11:02:28.608Z,4.45
2023-08-01T11:05:06.047Z,3.25
2023-08-01T11:07:34.145Z,7.20
2023-08-01T11:10:11.112Z,3.20
2023-08-01T11:12:38.768Z,3.08
2023-08-01T11:15:09.191Z,2.65
2023-08-01T11:17:44.229Z,3.17
2023-08-01T11:20:14.336Z,5.13
2023-08-01T11:23:03.249Z,3.53
2023-08-01T11:25:40.697Z,3.20
2023-08-01T11:28:12.805Z,4.18
2023-08-01T11:30:40.787Z,2.80
2023-08-01T11:33:19.191Z,2.72
2023-08-01T11:35:46.285Z,3.05
2023-08-01T11:38:13.076Z,3.15
2023-08-01T11:40:41.155Z,2.00
2023-08-01T11:43:09.294Z,5.85
2023-08-01T11:45:37.191Z,3.10
2023-08-01T11:48:04.591Z,2.05
2023-08-01T11:50:31.548Z,3.13
2023-08-01T11:52:58.446Z,1.35
2023-08-01T11:55:28.026Z,5.35
2023-08-01T11:57:56.289Z,4.73
2023-08-01T12:00:27.770Z,4.47
2023-08-01T12:03:15.163Z,3.13
2023-08-01T12:05:42.827Z,2.63
2023-08-01T12:08:13.796Z,3.60
2023-08-01T12:10:46.373Z,1.07
2023-08-01T12:13:23.827Z,4.40
2023-08-01T12:15:52.004Z,3.67
2023-08-01T12:20:57.065Z,1.97
2023-08-01T12:23:23.921Z,2.60
2023-08-01T12:25:50.885Z,2.23
2023-08-01T12:28:17.752Z,3.87
2023-08-01T12:30:45.436Z,1.73
2023-08-01T12:33:12.440Z,3.73
2023-08-01T12:35:42.881Z,1.53
2023-08-01T12:38:10.856Z,2.67
2023-08-01T12:40:37.787Z,9.53
2023-08-01T12:43:04.571Z,7.87
2023-08-01T12:45:31.373Z,4.40
2023-08-01T12:47:58.193Z,4.43
2023-08-01T12:50:25.135Z,5.20
2023-08-01T12:52:51.983Z,4.67
2023-08-01T12:55:18.976Z,3.57
2023-08-01T12:57:45.903Z,7.73
2023-08-01T13:00:13.039Z,2.07
2023-08-01T13:02:40.221Z,2.73
2023-08-01T13:05:07.313Z,1.77
2023-08-01T13:07:34.265Z,5.73
2023-08-01T13:10:02.122Z,5.53
2023-08-01T13:12:29.010Z,6.27
2023-08-01T13:15:04.009Z,1.60
2023-08-01T13:17:40.022Z,5.93
2023-08-01T13:20:07.609Z,6.37
2023-08-01T13:22:34.434Z,6.37
2023-08-01T13:25:01.483Z,6.73
2023-08-01T13:27:28.281Z,5.20
2023-08-01T13:29:55.365Z,2.05
2023-08-01T13:32:22.371Z,4.72
2023-08-01T13:34:49.336Z,5.10
2023-08-01T13:37:17.677Z,8.27
2023-08-01T13:39:47.122Z,4.88
2023-08-01T13:42:14.258Z,3.20
2023-08-01T13:44:47.686Z,7.97
2023-08-01T13:47:20.371Z,6.07
2023-08-01T13:49:47.310Z,5.22
2023-08-01T13:52:14.176Z,5.97
2023-08-01T13:54:41.480Z,4.50
2023-08-01T13:57:08.307Z,7.47
2023-08-01T13:59:35.132Z,2.22
2023-08-01T14:02:02.044Z,4.57
2023-08-01T14:04:28.927Z,2.88
2023-08-01T14:06:56.555Z,3.08
2023-08-01T14:09:23.457Z,3.50
2023-08-01T14:11:50.362Z,3.97
2023-08-01T14:14:18.395Z,4.00
2023-08-01T14:16:45.813Z,3.00
2023-08-01T14:19:14.661Z,1.10
2023-08-01T14:21:41.492Z,2.03
2023-08-01T14:24:08.253Z,1.17
2023-08-01T14:26:35.091Z,1.45
2023-08-01T14:29:01.882Z,2.63
2023-08-01T14:31:28.773Z,1.77
2023-08-01T14:33:55.625Z,4.35
2023-08-01T14:36:22.424Z,2.65
2023-08-01T14:38:56.935Z,3.22
2023-08-01T14:41:47.041Z,2.85
2023-08-01T14:44:12.085Z,1.10
2023-08-01T14:46:39.599Z,1.88
2023-08-01T14:49:06.583Z,3.58
2023-08-01T14:51:33.319Z,1.92
2023-08-01T14:54:00.105Z,3.05
2023-08-01T14:56:26.840Z,3.97
2023-08-01T14:58:55.117Z,3.95
2023-08-01T15:01:22.550Z,2.38
2023-08-01T15:03:49.431Z,6.28
2023-08-01T15:06:16.771Z,2.35
2023-08-01T15:08:44.071Z,1.10
2023-08-01T15:11:11.267Z,2.78
2023-08-01T15:13:38.210Z,3.75
2023-08-01T15:16:05.035Z,3.45
2023-08-01T15:18:31.883Z,2.58
2023-08-01T15:20:58.695Z,1.23
2023-08-01T15:23:25.521Z,1.35
2023-08-01T15:25:59.924Z,4.03
2023-08-01T15:28:27.384Z,2.45
2023-08-01T15:31:09.163Z,2.00
2023-08-01T15:33:38.036Z,1.10
2023-08-01T15:36:06.937Z,2.75
2023-08-01T15:38:35.226Z,0.95
2023-08-01T15:41:11.369Z,1.65
2023-08-01T15:43:40.197Z,1.70
2023-08-01T15:46:08.237Z,4.05
2023-08-01T15:48:36.333Z,1.40
2023-08-01T15:51:04.617Z,1.48
2023-08-01T15:53:35.666Z,1.23
2023-08-01T15:56:07.929Z,1.67
2023-08-01T15:58:35.587Z,2.55
2023-08-01T16:01:02.610Z,3.00
2023-08-01T16:03:30.004Z,3.08
2023-08-01T16:05:57.717Z,2.70
2023-08-01T16:08:24.773Z,0.77
2023-08-01T16:10:51.677Z,3.05
2023-08-01T16:13:19.609Z,1.60
2023-08-01T16:15:46.938Z,2.42
2023-08-01T16:18:13.877Z,3.70
2023-08-01T16:20:40.721Z,0.70
2023-08-01T16:23:07.601Z,1.60
2023-08-01T16:25:34.456Z,1.55
2023-08-01T16:28:01.361Z,3.33
2023-08-01T16:30:28.754Z,4.35
2023-08-01T16:32:56.176Z,3.58
2023-08-01T16:35:23.371Z,4.40
2023-08-01T16:37:50.331Z,3.03
2023-08-01T16:40:17.274Z,5.40
2023-08-01T16:42:44.970Z,5.40
2023-08-01T16:45:13.369Z,3.47
2023-08-01T16:47:43.558Z,2.40
2023-08-01T16:50:21.607Z,5.32
2023-08-01T16:52:49.388Z,5.35
2023-08-01T16:55:17.509Z,2.88
2023-08-01T16:57:44.969Z,2.35
2023-08-01T17:00:13.418Z,4.43
2023-08-01T17:02:40.836Z,5.25
2023-08-01T17:05:08.389Z,2.33
2023-08-01T17:07:35.597Z,2.60
2023-08-01T17:10:05.984Z,4.63
2023-08-01T17:12:34.916Z,2.60
2023-08-01T17:15:01.941Z,4.70
2023-08-01T17:17:29.505Z,3.00
2023-08-01T17:20:00.194Z,5.17
2023-08-01T17:22:28.182Z,2.77
2023-08-01T17:24:55.410Z,9.10
2023-08-01T17:27:22.673Z,5.07
2023-08-01T17:29:50.469Z,5.33
2023-08-01T17:32:18.749Z,2.07
2023-08-01T17:34:47.888Z,1.73
2023-08-01T17:37:15.482Z,5.13
2023-08-01T17:39:42.738Z,3.43
2023-08-01T17:42:09.907Z,6.40
2023-08-01T17:44:41.105Z,5.00
2023-08-01T17:47:09.188Z,5.32
2023-08-01T17:49:36.423Z,6.28
2023-08-01T17:52:04.896Z,5.87
2023-08-01T17:54:32.838Z,6.33
2023-08-01T17:57:00.309Z,8.07
2023-08-01T17:59:27.303Z,6.40
2023-08-01T18:01:54.870Z,5.50
2023-08-01T18:04:22.625Z,4.57
2023-08-01T18:06:50.498Z,7.77
2023-08-01T18:09:20.001Z,7.73
2023-08-01T18:11:49.524Z,5.13
2023-08-01T18:14:19.014Z,8.93
2023-08-01T18:16:47.288Z,7.57
2023-08-01T18:19:17.893Z,4.33
2023-08-01T18:21:45.053Z,4.27
2023-08-01T18:24:13.103Z,7.03
2023-08-01T18:26:40.863Z,3.53
2023-08-01T18:29:10.546Z,8.67
2023-08-01T18:31:37.763Z,9.27
2023-08-01T18:34:05.075Z,4.63
2023-08-01T18:36:32.505Z,3.63
2023-08-01T18:39:01.656Z,3.40
2023-08-01T18:41:28.585Z,3.07
2023-08-01T18:43:55.564Z,9.37
2023-08-01T18:46:25.572Z,3.87
2023-08-01T18:48:58.673Z,7.97
2023-08-01T18:51:25.760Z,5.67
2023-08-01T18:53:52.920Z,17.70
2023-08-01T18:56:21.061Z,6.07
2023-08-01T18:58:52.283Z,3.97
2023-08-01T19:01:26.470Z,10.67
2023-08-01T19:03:57.526Z,9.47
2023-08-01T19:06:27.498Z,4.90
2023-08-01T19:09:18.258Z,8.07
2023-08-01T19:11:49.067Z,4.30
2023-08-01T19:14:30.111Z,8.57
2023-08-01T19:17:01.629Z,5.27
2023-08-01T19:19:32.879Z,9.60
2023-08-01T19:22:08.034Z,5.27
2023-08-01T19:24:45.239Z,4.60
2023-08-01T19:27:14.676Z,7.57
2023-08-01T19:29:43.518Z,8.03
2023-08-01T19:32:18.643Z,8.70
2023-08-01T19:37:29.103Z,8.07
2023-08-01T19:39:55.773Z,4.13
2023-08-01T19:42:24.566Z,11.70
2023-08-01T19:44:51.224Z,9.20
2023-08-01T19:47:17.868Z,8.27
2023-08-01T19:49:44.554Z,8.67
2023-08-01T19:52:11.278Z,12.03
2023-08-01T19:54:38.125Z,3.53
2023-08-01T19:57:05.075Z,10.23
2023-08-01T19:59:31.765Z,8.77
2023-08-01T20:01:58.716Z,11.10
2023-08-01T20:04:25.609Z,4.67
2023-08-01T20:06:52.442Z,8.80
2023-08-01T20:09:19.524Z,8.00
2023-08-01T20:11:46.249Z,5.57
2023-08-01T20:14:13.008Z,5.00
2023-08-01T20:16:40.060Z,5.67
2023-08-01T20:19:07.026Z,7.00
2023-08-01T20:21:33.703Z,2.33
2023-08-01T20:24:00.614Z,4.30
2023-08-01T20:26:27.290Z,5.67
2023-08-01T20:28:53.960Z,3.93
2023-08-01T20:31:20.728Z,8.27
2023-08-01T20:33:47.442Z,5.97
2023-08-01T20:36:14.114Z,7.73
2023-08-01T20:38:40.827Z,7.57
2023-08-01T20:41:17.431Z,5.37
2023-08-01T20:43:44.467Z,5.70
2023-08-01T20:46:11.286Z,3.87
2023-08-01T20:48:38.041Z,3.03
2023-08-01T20:51:04.700Z,3.43
2023-08-01T20:53:31.461Z,5.63
2023-08-01T20:55:59.808Z,3.93
2023-08-01T20:58:26.491Z,5.40
2023-08-01T21:01:00.442Z,3.07
2023-08-01T21:03:27.848Z,3.53
2023-08-01T21:05:54.542Z,3.83
2023-08-01T21:08:21.309Z,6.67
2023-08-01T21:10:48.013Z,8.23
2023-08-01T21:13:14.943Z,5.83
2023-08-01T21:15:41.829Z,4.37
2023-08-01T21:18:08.739Z,4.90
2023-08-01T21:20:35.461Z,4.70
2023-08-01T21:23:02.180Z,3.47
2023-08-01T21:25:28.986Z,7.90
2023-08-01T21:27:55.663Z,5.23
2023-08-01T21:30:22.422Z,6.60
2023-08-01T21:32:49.244Z,4.80
2023-08-01T21:35:17.697Z,5.63
2023-08-01T21:37:44.431Z,7.30
2023-08-01T21:40:11.622Z,1.70
2023-08-01T21:42:38.491Z,1.83
2023-08-01T21:45:05.992Z,6.50
2023-08-01T21:47:33.064Z,5.77
2023-08-01T21:50:01.000Z,8.10
2023-08-01T21:52:27.830Z,7.83
2023-08-01T21:54:54.531Z,5.27
2023-08-01T21:57:23.902Z,6.00
2023-08-01T21:59:50.622Z,6.83
2023-08-01T22:02:17.358Z,8.23
2023-08-01T22:04:44.013Z,4.83
2023-08-01T22:07:10.841Z,7.07
2023-08-01T22:09:37.736Z,8.77
2023-08-01T22:12:04.738Z,7.07
2023-08-01T22:14:31.463Z,6.43
2023-08-01T22:16:58.119Z,9.17
2023-08-01T22:19:25.135Z,5.57
2023-08-01T22:21:52.319Z,2.73
2023-08-01T22:24:19.038Z,10.17
2023-08-01T22:26:45.736Z,4.67
2023-08-01T22:29:12.480Z,10.60
2023-08-01T22:31:39.122Z,8.20
2023-08-01T22:34:06.457Z,7.70
2023-08-01T22:36:33.117Z,4.07
2023-08-01T22:39:00.143Z,2.90
2023-08-01T22:41:26.855Z,4.83
2023-08-01T22:43:58.471Z,4.63
2023-08-01T22:46:25.495Z,5.47
2023-08-01T22:48:52.469Z,3.87
2023-08-01T22:51:20.037Z,7.53
2023-08-01T22:53:49.280Z,1.90
2023-08-01T22:56:17.712Z,6.07
2023-08-01T22:58:44.581Z,4.60
2023-08-01T23:01:13.809Z,2.80
2023-08-01T23:03:41.450Z,1.50
2023-08-01T23:06:08.201Z,2.43
2023-08-01T23:08:36.193Z,2.70
2023-08-01T23:11:03.230Z,2.93
2023-08-01T23:13:30.132Z,4.50
2023-08-01T23:15:56.796Z,2.77
2023-08-01T23:18:23.866Z,4.37
2023-08-01T23:20:51.089Z,4.70
2023-08-01T23:23:17.728Z,4.27
2023-08-01T23:25:44.509Z,4.90
2023-08-01T23:28:11.188Z,4.07
2023-08-01T23:30:38.033Z,7.20
2023-08-01T23:33:05.091Z,5.67
2023-08-01T23:35:31.920Z,3.57
2023-08-01T23:37:59.673Z,4.83
2023-08-01T23:40:28.496Z,2.83
2023-08-01T23:42:55.198Z,3.23
2023-08-01T23:45:21.884Z,5.77
2023-08-01T23:47:48.676Z,2.23
2023-08-01T23:50:15.467Z,7.00
2023-08-01T23:52:44.241Z,2.23
2023-08-01T23:55:11.303Z,5.53
2023-08-01T23:57:38.106Z,5.53
